Time;durP1;ratioP1;P1;durP2;ratioP2;P2;SDS_P1;SDS_P2;PMS_P1;PMS_P2;Temp;Humidity;BMP_temperature;BMP_pressure;BME280_temperature;BME280_humidity;BME280_pressure;Samples;Min_cycle;Max_cycle;Signal;HPM_P1;HPM_P2
2021/11/18 00:01:08;;;;;;;18.27;10.73;;;;;;;2.48;73.63;95400.88;5075217;28;20056;-73
2021/11/18 00:03:33;;;;;;;16.55;10.60;;;;;;;2.49;73.93;95399.13;5058561;28;20032;-73
2021/11/18 00:05:58;;;;;;;17.02;10.63;;;;;;;2.45;73.55;95386.44;5093245;28;20498;-73
2021/11/18 00:08:24;;;;;;;17.63;11.55;;;;;;;2.49;73.40;95387.13;5058681;28;20084;-73
2021/11/18 00:11:00;;;;;;;16.30;10.07;;;;;;;2.42;73.27;95376.31;5091929;28;20509;-73
2021/11/18 00:13:31;;;;;;;17.15;11.25;;;;;;;2.39;73.03;95378.16;5075360;28;20063;-73
2021/11/18 00:15:57;;;;;;;18.17;11.30;;;;;;;2.46;73.12;95402.66;5091874;28;20120;-73
2021/11/18 00:18:24;;;;;;;14.85;10.50;;;;;;;2.45;73.39;95398.41;5075161;28;20032;-72
2021/11/18 00:20:50;;;;;;;15.55;9.88;;;;;;;2.44;72.91;95402.72;5091829;28;20304;-73
2021/11/18 00:23:16;;;;;;;20.65;11.68;;;;;;;2.38;73.15;95397.00;5091920;28;20109;-73
2021/11/18 00:25:42;;;;;;;19.15;11.52;;;;;;;2.47;73.04;95412.00;5091621;28;20129;-73
2021/11/18 00:28:07;;;;;;;16.00;10.40;;;;;;;2.46;73.38;95403.50;5091840;28;20036;-73
2021/11/18 00:30:32;;;;;;;16.20;10.18;;;;;;;2.39;73.42;95386.69;5074653;28;20081;-73
2021/11/18 00:32:58;;;;;;;17.27;11.65;;;;;;;2.55;73.08;95399.69;5093156;28;20115;-72
2021/11/18 00:35:25;;;;;;;20.55;12.95;;;;;;;2.42;73.23;95378.88;5092615;28;20051;-73
2021/11/18 00:37:50;;;;;;;17.90;12.18;;;;;;;2.51;73.31;95400.75;5074946;28;20540;-73
2021/11/18 00:40:18;;;;;;;18.77;11.80;;;;;;;2.49;73.61;95397.41;5091444;28;20098;-73
2021/11/18 00:42:44;;;;;;;21.02;12.35;;;;;;;2.44;73.31;95392.44;5074899;28;20039;-73
2021/11/18 00:45:10;;;;;;;17.83;12.18;;;;;;;2.37;73.52;95385.94;5091205;28;20551;-73
2021/11/18 00:47:36;;;;;;;19.63;12.00;;;;;;;2.33;73.09;95380.97;5092719;28;20032;-73
2021/11/18 00:50:01;;;;;;;18.77;12.70;;;;;;;2.34;73.39;95380.06;5091228;28;20039;-73
2021/11/18 00:52:27;;;;;;;20.05;12.80;;;;;;;2.25;73.30;95378.72;5074440;28;20032;-72
2021/11/18 00:54:52;;;;;;;21.98;11.65;;;;;;;2.22;73.22;95369.44;5092235;28;20043;-73
2021/11/18 00:57:18;;;;;;;19.13;11.38;;;;;;;2.29;73.10;95375.16;5057363;28;20032;-73
2021/11/18 00:59:46;;;;;;;18.23;11.70;;;;;;;2.25;73.68;95378.72;5091047;28;20413;-73
2021/11/18 01:02:12;;;;;;;17.83;11.85;;;;;;;2.30;74.03;95378.56;5090694;28;20048;-72
2021/11/18 01:04:38;;;;;;;16.83;10.70;;;;;;;2.26;73.94;95375.28;5092133;28;20024;-73
2021/11/18 01:07:03;;;;;;;16.80;11.50;;;;;;;2.29;73.62;95374.31;5074032;28;20032;-73
2021/11/18 01:09:29;;;;;;;15.30;11.02;;;;;;;2.21;74.23;95367.78;5074041;28;20523;-73
2021/11/18 01:11:54;;;;;;;17.50;11.27;;;;;;;2.25;73.75;95383.84;5090724;28;20031;-73
2021/11/18 01:14:20;;;;;;;16.38;11.13;;;;;;;2.23;73.92;95375.41;5057213;28;20032;-72
2021/11/18 01:16:47;;;;;;;16.65;11.18;;;;;;;2.23;73.67;95377.97;5073822;28;20036;-72
2021/11/18 01:19:12;;;;;;;18.13;11.75;;;;;;;2.24;73.75;95379.63;5090662;28;20020;-73
2021/11/18 01:21:38;;;;;;;16.63;11.80;;;;;;;2.20;74.22;95366.13;5090525;28;20042;-73
2021/11/18 01:24:04;;;;;;;16.20;11.23;;;;;;;2.26;73.99;95382.13;5057007;28;20028;-74
2021/11/18 01:26:29;;;;;;;19.77;12.55;;;;;;;2.28;74.51;95382.91;5090457;28;20481;-73
2021/11/18 01:28:55;;;;;;;18.65;11.32;;;;;;;2.29;74.07;95384.59;5056934;28;20486;-72
2021/11/18 01:31:20;;;;;;;18.30;11.02;;;;;;;2.30;73.92;95376.81;5073453;28;20047;-73
2021/11/18 01:33:46;;;;;;;17.85;11.00;;;;;;;2.26;74.15;95365.03;5090419;28;20024;-73
2021/11/18 01:36:11;;;;;;;14.20;9.57;;;;;;;2.32;73.66;95384.47;5073273;28;20119;-73
2021/11/18 01:38:37;;;;;;;16.75;10.70;;;;;;;2.30;73.46;95381.94;5073443;28;20039;-73
2021/11/18 01:41:05;;;;;;;17.38;10.18;;;;;;;2.26;73.25;95384.69;5091341;28;20497;-73
2021/11/18 01:43:36;;;;;;;17.27;10.85;;;;;;;2.15;73.39;95375.72;5090261;28;20055;-73
2021/11/18 01:46:04;;;;;;;15.23;10.15;;;;;;;2.16;73.55;95385.06;5057103;28;20482;-72
2021/11/18 01:48:29;;;;;;;17.40;11.18;;;;;;;2.01;72.96;95372.91;5090177;28;20570;-73
2021/11/18 01:50:55;;;;;;;16.00;10.82;;;;;;;2.05;73.58;95387.22;5091325;28;20024;-72
2021/11/18 01:53:35;;;;;;;17.30;11.25;;;;;;;2.02;73.94;95387.38;5073446;28;20040;-73
2021/11/18 01:56:02;;;;;;;17.60;11.20;;;;;;;1.98;73.69;95380.72;5058463;28;20081;-73
2021/11/18 01:58:28;;;;;;;18.15;10.85;;;;;;;2.00;74.36;95394.28;5090000;28;20077;-73
2021/11/18 02:00:55;;;;;;;19.52;11.93;;;;;;;2.00;73.68;95389.16;5089937;28;20059;-72
2021/11/18 02:03:20;;;;;;;18.10;11.88;;;;;;;2.06;74.58;95391.47;5091606;28;20123;-73
2021/11/18 02:05:54;;;;;;;19.95;11.27;;;;;;;2.07;74.93;95376.94;5073061;28;20099;-73
2021/11/18 02:08:19;;;;;;;14.80;10.65;;;;;;;2.04;74.98;95365.06;5090205;28;20042;-73
2021/11/18 02:10:46;;;;;;;17.35;11.05;;;;;;;2.16;74.99;95379.94;5072875;28;20020;-73
2021/11/18 02:13:13;;;;;;;18.05;10.95;;;;;;;2.16;75.09;95372.25;5090024;28;20240;-73
2021/11/18 02:15:44;;;;;;;17.42;10.55;;;;;;;2.21;74.91;95378.03;5072229;28;20028;-73
2021/11/18 02:18:22;;;;;;;16.05;10.07;;;;;;;2.24;75.08;95371.94;5073883;28;20081;-73
2021/11/18 02:20:49;;;;;;;19.33;11.45;;;;;;;2.22;74.87;95366.88;5090817;28;20168;-73
2021/11/18 02:23:38;;;;;;;17.42;11.05;;;;;;;2.23;74.48;95370.28;5089983;28;20036;-73
2021/11/18 02:26:04;;;;;;;15.93;10.70;;;;;;;2.17;74.93;95361.13;5088997;28;20032;-73
2021/11/18 02:28:32;;;;;;;18.05;11.18;;;;;;;2.26;74.54;95371.88;5072715;28;20034;-73
2021/11/18 02:30:59;;;;;;;20.58;11.13;;;;;;;2.28;74.53;95372.66;5072927;28;20024;-72
2021/11/18 02:33:24;;;;;;;17.75;10.43;;;;;;;2.28;74.79;95370.06;5089851;28;20028;-73
2021/11/18 02:35:50;;;;;;;16.83;10.88;;;;;;;2.32;74.23;95381.88;5055941;28;20032;-73
2021/11/18 02:38:16;;;;;;;17.33;10.75;;;;;;;2.27;74.57;95376.13;5091275;28;20036;-73
2021/11/18 02:40:42;;;;;;;18.33;11.18;;;;;;;2.31;74.29;95393.84;5072723;28;20029;-72
2021/11/18 02:43:08;;;;;;;18.83;12.30;;;;;;;2.18;73.86;95383.28;5089521;28;20040;-73
2021/11/18 02:45:35;;;;;;;28.98;18.98;;;;;;;2.13;73.88;95384.38;5055960;28;20245;-73
2021/11/18 02:48:00;;;;;;;30.08;18.58;;;;;;;1.97;73.88;95395.22;5089725;28;20032;-73
2021/11/18 02:50:37;;;;;;;31.77;21.95;;;;;;;1.96;74.07;95392.75;5072624;28;20028;-73
2021/11/18 02:53:03;;;;;;;28.13;17.52;;;;;;;2.04;73.98;95406.09;5073072;28;20035;-73
2021/11/18 02:55:31;;;;;;;21.25;13.35;;;;;;;2.03;73.67;95409.53;5090549;28;20024;-73
2021/11/18 02:57:57;;;;;;;18.98;11.02;;;;;;;1.97;73.74;95412.34;5073038;28;20036;-73
2021/11/18 03:00:27;;;;;;;16.70;10.82;;;;;;;1.90;73.23;95405.81;5089190;28;20055;-73
2021/11/18 03:02:53;;;;;;;17.27;10.05;;;;;;;1.86;73.41;95399.13;5089606;28;20032;-73
2021/11/18 03:05:18;;;;;;;17.15;11.02;;;;;;;1.83;73.17;95406.91;5072601;28;20043;-73
2021/11/18 03:07:47;;;;;;;14.65;9.27;;;;;;;1.86;73.00;95410.19;5072660;28;20036;-73
2021/11/18 03:10:12;;;;;;;16.67;10.05;;;;;;;1.82;73.28;95408.66;5072497;28;20497;-73
2021/11/18 03:12:38;;;;;;;18.25;11.07;;;;;;;1.82;73.04;95410.38;5072513;28;20036;-73
2021/11/18 03:15:05;;;;;;;16.63;10.70;;;;;;;1.76;73.22;95407.16;5072737;28;20489;-73
2021/11/18 03:17:31;;;;;;;15.25;10.10;;;;;;;1.77;73.09;95410.56;5055948;28;20555;-73
2021/11/18 03:19:56;;;;;;;16.30;10.93;;;;;;;1.72;73.42;95409.91;5089437;28;20161;-72
2021/11/18 03:22:21;;;;;;;17.23;11.52;;;;;;;1.65;72.96;95421.28;5089397;28;20489;-73
2021/11/18 03:24:47;;;;;;;17.40;11.48;;;;;;;1.59;72.95;95413.81;5090434;28;20090;-73
2021/11/18 03:27:12;;;;;;;18.95;10.85;;;;;;;1.55;73.34;95415.66;5093700;28;20028;-73
2021/11/18 03:29:38;;;;;;;16.67;10.85;;;;;;;1.52;73.53;95410.66;5094007;28;20036;-73
2021/11/18 03:32:04;;;;;;;17.85;11.15;;;;;;;1.36;73.21;95399.31;5092759;28;20478;-73
2021/11/18 03:34:30;;;;;;;21.48;12.40;;;;;;;1.46;73.12;95419.41;5059088;28;20127;-73
2021/11/18 03:36:56;;;;;;;19.40;12.52;;;;;;;1.48;73.88;95416.81;5092607;28;20115;-73
2021/11/18 03:39:21;;;;;;;21.27;12.82;;;;;;;1.48;74.11;95411.69;5075702;28;20032;-73
2021/11/18 03:41:49;;;;;;;20.05;11.65;;;;;;;1.53;74.27;95415.75;5092477;28;20032;-73
2021/11/18 03:44:15;;;;;;;18.60;11.77;;;;;;;1.52;74.81;95413.22;5075801;28;20047;-73
2021/11/18 03:46:43;;;;;;;19.08;11.32;;;;;;;1.58;74.91;95413.00;5075610;28;20059;-73
2021/11/18 03:49:10;;;;;;;16.67;10.30;;;;;;;1.60;74.74;95412.94;5092470;28;20510;-73
2021/11/18 03:51:35;;;;;;;17.67;11.43;;;;;;;1.66;74.81;95421.22;5075543;28;20028;-73
2021/11/18 03:54:01;;;;;;;17.60;11.52;;;;;;;1.64;74.32;95414.47;5093623;28;20501;-73
2021/11/18 03:56:28;;;;;;;16.13;10.48;;;;;;;1.62;74.29;95406.88;5092405;28;20052;-73
2021/11/18 03:58:54;;;;;;;16.77;10.45;;;;;;;1.69;74.25;95415.13;5092339;28;20036;-73
2021/11/18 04:01:19;;;;;;;17.48;10.57;;;;;;;1.64;74.44;95399.94;5092039;28;20040;-73
2021/11/18 04:03:45;;;;;;;18.52;12.35;;;;;;;1.71;74.59;95413.38;5092055;28;20031;-73
2021/11/18 04:06:10;;;;;;;16.83;11.35;;;;;;;1.72;75.02;95417.59;5092054;28;20028;-73
2021/11/18 04:08:35;;;;;;;15.82;10.57;;;;;;;1.74;74.33;95419.19;5093254;28;20028;-73
2021/11/18 04:11:01;;;;;;;17.33;11.43;;;;;;;1.75;74.71;95422.59;5074969;28;20052;-73
2021/11/18 04:13:28;;;;;;;19.25;11.80;;;;;;;1.76;75.04;95422.53;5091945;28;20032;-73
2021/11/18 04:15:53;;;;;;;20.00;11.93;;;;;;;1.78;74.76;95420.75;5074962;28;20035;-73
2021/11/18 04:18:20;;;;;;;19.23;11.95;;;;;;;1.81;74.83;95429.19;5074891;28;20028;-73
2021/11/18 04:20:48;;;;;;;18.05;11.82;;;;;;;1.77;75.19;95429.31;5074967;28;20032;-72
2021/11/18 04:23:14;;;;;;;18.30;11.20;;;;;;;1.72;74.66;95410.72;5075528;28;20399;-73
2021/11/18 04:25:39;;;;;;;18.95;11.90;;;;;;;1.79;75.43;95424.97;5074829;28;20160;-72
2021/11/18 04:28:06;;;;;;;17.67;11.00;;;;;;;1.85;75.57;95423.06;5091775;28;20051;-73
2021/11/18 04:30:44;;;;;;;18.80;11.15;;;;;;;1.83;75.52;95410.31;5074969;28;20112;-73
2021/11/18 04:33:09;;;;;;;16.75;11.07;;;;;;;1.88;75.73;95405.84;5091910;28;20069;-73
2021/11/18 04:35:35;;;;;;;16.23;10.40;;;;;;;1.97;75.10;95405.47;5074516;28;20039;-73
2021/11/18 04:38:01;;;;;;;16.23;10.15;;;;;;;2.00;75.23;95399.41;5090589;28;20147;-73
2021/11/18 04:40:26;;;;;;;19.55;11.77;;;;;;;1.98;75.48;95388.41;5057794;28;20051;-73
2021/11/18 04:42:52;;;;;;;17.85;11.05;;;;;;;2.04;75.36;95384.75;5091575;28;20030;-72
2021/11/18 04:45:20;;;;;;;19.38;12.07;;;;;;;2.13;75.40;95390.31;5074391;28;20096;-73
2021/11/18 04:47:45;;;;;;;18.98;12.10;;;;;;;2.16;74.98;95395.31;5057995;28;20071;-73
2021/11/18 04:50:11;;;;;;;20.17;12.43;;;;;;;2.19;75.44;95392.63;5091235;28;20043;-73
2021/11/18 04:52:37;;;;;;;26.60;17.63;;;;;;;2.16;75.04;95390.19;5074563;28;20109;-73
2021/11/18 04:55:03;;;;;;;57.85;33.88;;;;;;;2.18;75.21;95398.66;5074325;28;20028;-73
2021/11/18 04:57:28;;;;;;;63.08;33.58;;;;;;;2.20;75.47;95402.00;5091230;28;20036;-73
2021/11/18 04:59:55;;;;;;;51.10;29.80;;;;;;;2.16;75.54;95402.19;5090725;28;20028;-73
2021/11/18 05:02:23;;;;;;;59.70;31.23;;;;;;;2.20;74.93;95404.56;5057674;28;20115;-73
2021/11/18 05:04:49;;;;;;;56.08;31.83;;;;;;;2.14;75.21;95384.28;5057406;28;20032;-73
2021/11/18 05:07:17;;;;;;;44.92;25.92;;;;;;;2.22;75.04;95404.50;5074180;28;20032;-73
2021/11/18 05:09:43;;;;;;;35.33;21.55;;;;;;;2.16;74.79;95397.06;5074084;28;20051;-73
2021/11/18 05:12:08;;;;;;;27.67;16.13;;;;;;;2.17;74.69;95411.53;5074039;28;20038;-73
2021/11/18 05:14:34;;;;;;;24.10;15.07;;;;;;;2.01;74.42;95406.22;5092006;28;20102;-73
2021/11/18 05:16:59;;;;;;;25.40;15.52;;;;;;;2.03;74.52;95409.53;5090722;28;20036;-73
2021/11/18 05:19:25;;;;;;;19.95;12.65;;;;;;;2.03;74.38;95413.81;5073780;28;20463;-73
2021/11/18 05:21:51;;;;;;;24.38;14.10;;;;;;;1.92;74.13;95406.56;5090667;28;20064;-73
2021/11/18 05:24:16;;;;;;;23.20;13.60;;;;;;;1.95;74.16;95409.84;5073783;28;20115;-73
2021/11/18 05:26:42;;;;;;;26.38;15.82;;;;;;;2.00;73.99;95420.72;5090446;28;20418;-73
2021/11/18 05:29:07;;;;;;;32.53;16.45;;;;;;;2.00;74.15;95412.22;5090419;28;20032;-73
2021/11/18 05:31:33;;;;;;;26.50;15.23;;;;;;;1.96;74.72;95403.81;5090615;28;20032;-73
2021/11/18 05:33:59;;;;;;;35.80;16.67;;;;;;;1.97;74.98;95412.34;5090475;28;20111;-73
2021/11/18 05:36:26;;;;;;;30.33;15.50;;;;;;;2.02;74.83;95423.25;5073289;28;20127;-73
2021/11/18 05:38:51;;;;;;;31.25;17.98;;;;;;;2.01;74.81;95431.84;5091512;28;20016;-73
2021/11/18 05:41:17;;;;;;;31.52;17.45;;;;;;;2.00;74.37;95440.41;5090169;28;20069;-73
2021/11/18 05:43:43;;;;;;;42.83;24.83;;;;;;;1.99;74.91;95444.69;5056709;28;20036;-73
2021/11/18 05:46:10;;;;;;;57.53;31.08;;;;;;;1.98;74.61;95452.47;5073359;28;20105;-73
2021/11/18 05:48:36;;;;;;;56.00;30.80;;;;;;;1.98;74.41;95460.16;5072837;28;20403;-73
2021/11/18 05:51:02;;;;;;;47.17;26.92;;;;;;;2.05;74.49;95471.81;5072612;28;20027;-73
2021/11/18 05:53:34;;;;;;;46.17;27.15;;;;;;;2.04;74.62;95477.03;5073117;28;20452;-73
2021/11/18 05:56:02;;;;;;;44.28;25.48;;;;;;;2.05;74.50;95479.50;5072946;28;20436;-73
2021/11/18 05:58:28;;;;;;;45.33;25.40;;;;;;;2.01;74.22;95470.28;5090034;28;20052;-73
2021/11/18 06:00:53;;;;;;;42.53;24.05;;;;;;;2.06;74.58;95481.16;5072976;28;20558;-73
2021/11/18 06:03:19;;;;;;;44.05;25.67;;;;;;;2.00;74.26;95473.72;5090144;28;20043;-73
2021/11/18 06:05:44;;;;;;;40.60;23.65;;;;;;;2.03;74.00;95477.88;5089847;28;20077;-73
2021/11/18 06:08:10;;;;;;;38.10;22.48;;;;;;;2.04;74.21;95480.41;5091528;28;20036;-73
2021/11/18 06:10:35;;;;;;;37.22;21.23;;;;;;;1.96;73.67;95464.50;5089750;28;20035;-73
2021/11/18 06:13:01;;;;;;;35.13;21.70;;;;;;;2.05;74.16;95478.69;5090989;28;20028;-73
2021/11/18 06:15:28;;;;;;;41.65;24.02;;;;;;;2.00;73.94;95466.03;5056283;28;20498;-73
2021/11/18 06:17:53;;;;;;;39.53;22.90;;;;;;;2.02;74.13;95469.38;5089822;28;20036;-73
2021/11/18 06:20:19;;;;;;;39.80;23.75;;;;;;;2.06;74.36;95472.66;5072872;28;20025;-73
2021/11/18 06:22:44;;;;;;;37.72;21.73;;;;;;;2.18;74.49;95479.88;5089748;28;20160;-73
2021/11/18 06:25:11;;;;;;;34.80;20.13;;;;;;;2.23;74.25;95489.06;5072772;28;20063;-73
2021/11/18 06:27:38;;;;;;;30.48;18.05;;;;;;;2.31;74.79;95480.19;5072979;28;20028;-73
2021/11/18 06:30:05;;;;;;;28.92;17.33;;;;;;;2.39;75.53;95488.44;5072666;28;20489;-73
2021/11/18 06:32:31;;;;;;;26.63;17.05;;;;;;;2.47;75.17;95476.13;5072785;28;20063;-73
2021/11/18 06:34:57;;;;;;;30.05;17.30;;;;;;;2.49;75.55;95463.25;5090867;28;20032;-73
2021/11/18 06:37:23;;;;;;;27.35;15.40;;;;;;;2.62;75.70;95472.97;5056210;28;20039;-73
2021/11/18 06:39:48;;;;;;;23.23;14.18;;;;;;;2.76;75.75;95466.38;5089539;28;20040;-73
2021/11/18 06:42:14;;;;;;;22.15;13.50;;;;;;;2.91;75.97;95465.75;5089681;28;20055;-73
2021/11/18 06:44:39;;;;;;;23.48;13.75;;;;;;;3.02;75.68;95475.59;5089514;28;20028;-73
2021/11/18 06:47:05;;;;;;;19.45;12.57;;;;;;;2.95;75.38;95439.06;5072759;28;20064;-73
2021/11/18 06:49:30;;;;;;;24.00;13.38;;;;;;;3.21;75.45;95470.50;5072749;28;20043;-73
2021/11/18 06:51:56;;;;;;;19.88;12.75;;;;;;;3.30;75.37;95467.50;5089348;28;20028;-73
2021/11/18 06:54:21;;;;;;;21.20;13.27;;;;;;;3.45;75.07;95471.13;5072780;28;20417;-73
2021/11/18 06:56:47;;;;;;;20.00;12.60;;;;;;;3.57;75.22;95479.13;5089380;28;20464;-73
2021/11/18 06:59:12;;;;;;;18.35;12.10;;;;;;;3.71;75.25;95475.94;5089399;28;20468;-73
2021/11/18 07:01:38;;;;;;;18.05;12.27;;;;;;;3.87;75.27;95481.19;5075032;28;20060;-73
2021/11/18 07:04:07;;;;;;;20.50;13.60;;;;;;;4.06;74.48;95488.06;5059724;28;20119;-73
2021/11/18 07:06:33;;;;;;;18.98;12.52;;;;;;;4.16;75.09;95486.75;5076725;28;20032;-73
2021/11/18 07:08:59;;;;;;;48.85;28.00;;;;;;;4.31;74.47;95485.19;5076552;28;20020;-73
2021/11/18 07:11:25;;;;;;;50.38;29.58;;;;;;;4.42;73.95;95491.47;5059488;28;20028;-73
2021/11/18 07:13:51;;;;;;;47.22;27.23;;;;;;;4.56;72.56;95471.97;5076197;28;20524;-73
2021/11/18 07:16:17;;;;;;;41.30;24.55;;;;;;;4.82;72.81;95479.25;5076061;28;20023;-73
2021/11/18 07:18:43;;;;;;;34.63;20.55;;;;;;;5.18;74.25;95480.03;5092994;28;20431;-73
2021/11/18 07:21:08;;;;;;;37.10;23.75;;;;;;;5.64;81.68;95472.53;5094122;28;20024;-73
2021/11/18 07:23:35;;;;;;;45.38;26.67;;;;;;;6.10;80.53;95488.13;5076052;28;20410;-73
2021/11/18 07:26:03;;;;;;;36.45;23.25;;;;;;;6.20;80.39;95497.03;5093027;28;20031;-73
2021/11/18 07:28:30;;;;;;;39.95;27.17;;;;;;;6.41;76.51;95492.44;5076415;28;20419;-74
2021/11/18 07:30:56;;;;;;;36.80;25.85;;;;;;;6.52;76.46;95487.53;5075991;28;20099;-73
2021/11/18 07:33:22;;;;;;;45.53;28.77;;;;;;;6.59;73.70;95488.00;5093042;28;20118;-74
2021/11/18 07:35:47;;;;;;;40.70;28.02;;;;;;;6.72;74.57;95494.13;5075584;28;20125;-73
2021/11/18 07:38:16;;;;;;;39.53;23.23;;;;;;;6.68;72.18;95501.19;5059313;28;20123;-73
2021/11/18 07:40:42;;;;;;;31.88;20.80;;;;;;;6.67;69.74;95504.72;5076147;28;20032;-74
2021/11/18 07:43:08;;;;;;;30.92;20.55;;;;;;;6.71;66.73;95507.94;5076045;28;20040;-73
2021/11/18 07:45:33;;;;;;;36.35;22.85;;;;;;;6.63;66.91;95504.97;5092508;28;20093;-73
2021/11/18 07:47:59;;;;;;;34.30;21.45;;;;;;;6.66;66.10;95515.16;5093726;28;20032;-74
2021/11/18 07:50:24;;;;;;;32.90;21.90;;;;;;;6.57;65.32;95500.97;5092523;28;20073;-73
2021/11/18 07:52:49;;;;;;;32.30;21.27;;;;;;;6.63;65.68;95505.81;5092637;28;20029;-73
2021/11/18 07:55:17;;;;;;;32.17;22.02;;;;;;;6.76;66.50;95505.13;5075500;28;20063;-73
2021/11/18 07:57:42;;;;;;;33.85;21.58;;;;;;;6.93;66.33;95503.22;5075717;28;20030;-74
2021/11/18 08:00:09;;;;;;;31.42;20.55;;;;;;;7.03;65.41;95507.88;5058496;28;20056;-74
2021/11/18 08:02:35;;;;;;;36.40;22.95;;;;;;;7.16;65.18;95508.84;5092485;28;20110;-74
2021/11/18 08:05:00;;;;;;;30.45;20.52;;;;;;;7.23;64.97;95506.72;5075597;28;20512;-73
2021/11/18 08:07:26;;;;;;;35.63;22.17;;;;;;;7.26;61.77;95515.09;5092217;28;20032;-73
2021/11/18 08:09:53;;;;;;;39.72;23.92;;;;;;;7.17;62.59;95510.47;5092408;28;20058;-74
2021/11/18 08:12:19;;;;;;;34.50;22.42;;;;;;;7.05;63.53;95506.88;5091148;28;20036;-73
2021/11/18 08:14:44;;;;;;;39.13;23.83;;;;;;;7.18;63.68;95498.38;5075402;28;20032;-74
2021/11/18 08:17:10;;;;;;;39.63;24.00;;;;;;;7.34;63.36;95512.06;5091690;28;20044;-74
2021/11/18 08:19:35;;;;;;;38.17;21.58;;;;;;;7.35;63.26;95516.31;5091967;28;20016;-74
2021/11/18 08:22:01;;;;;;;39.22;22.77;;;;;;;7.32;63.29;95508.75;5089564;28;20036;-74
2021/11/18 08:24:28;;;;;;;39.33;22.95;;;;;;;7.44;62.64;95523.56;5079938;28;20020;-73
2021/11/18 08:26:53;;;;;;;34.85;22.77;;;;;;;7.51;62.31;95518.84;5071441;28;20037;-73
2021/11/18 08:29:20;;;;;;;42.08;25.88;;;;;;;7.56;62.16;95512.47;5089453;28;20559;-74
2021/11/18 08:31:46;;;;;;;38.00;24.15;;;;;;;7.61;61.82;95515.59;5074832;28;20036;-74
2021/11/18 08:34:12;;;;;;;35.50;23.00;;;;;;;7.59;61.73;95512.28;5065966;28;20028;-74
2021/11/18 08:36:37;;;;;;;37.80;24.10;;;;;;;7.68;62.55;95508.31;5072472;28;20044;-74
2021/11/18 08:39:06;;;;;;;35.33;23.90;;;;;;;7.72;61.79;95514.97;5073770;28;20028;-74
2021/11/18 08:41:32;;;;;;;39.85;24.40;;;;;;;7.80;61.48;95522.25;5068810;28;20036;-74
2021/11/18 08:43:58;;;;;;;39.67;23.65;;;;;;;7.82;61.54;95525.56;5079440;28;20504;-74
2021/11/18 08:46:23;;;;;;;39.33;24.92;;;;;;;7.84;61.43;95529.72;5070996;28;20470;-74
2021/11/18 08:48:49;;;;;;;42.22;23.35;;;;;;;7.83;61.44;95530.66;5071178;28;20025;-74
2021/11/18 08:51:18;;;;;;;40.00;25.90;;;;;;;7.71;60.94;95528.81;5055617;28;20379;-74
2021/11/18 08:53:44;;;;;;;41.47;26.77;;;;;;;7.69;60.60;95532.41;5049417;28;20028;-74
2021/11/18 08:56:10;;;;;;;40.95;26.92;;;;;;;7.60;60.92;95537.22;5053484;28;20025;-74
2021/11/18 08:58:39;;;;;;;37.10;24.90;;;;;;;7.57;61.15;95539.97;5054288;28;20199;-74
2021/11/18 09:01:06;;;;;;;35.83;23.75;;;;;;;7.50;61.14;95536.09;5072986;28;20412;-74
2021/11/18 09:03:33;;;;;;;44.80;24.88;;;;;;;7.43;61.51;95532.22;5070798;28;20029;-74
2021/11/18 09:06:00;;;;;;;41.58;23.17;;;;;;;7.54;61.52;95545.31;5054520;28;20032;-74
2021/11/18 09:08:26;;;;;;;39.45;26.10;;;;;;;7.52;61.55;95542.03;5069786;28;20033;-74
2021/11/18 09:10:51;;;;;;;41.65;25.98;;;;;;;7.44;61.13;95549.41;5078902;28;20032;-74
2021/11/18 09:13:19;;;;;;;47.58;29.52;;;;;;;7.33;61.44;95549.19;5080186;28;20479;-74
2021/11/18 09:15:44;;;;;;;47.75;29.58;;;;;;;7.13;61.93;95527.06;5083349;28;20406;-74
2021/11/18 09:18:10;;;;;;;46.40;27.88;;;;;;;7.29;61.84;95550.28;5088267;28;20048;-74
2021/11/18 09:20:36;;;;;;;51.28;31.05;;;;;;;7.33;62.01;95544.03;5070993;28;20021;-74
2021/11/18 09:23:01;;;;;;;50.78;30.85;;;;;;;7.27;61.34;95547.81;5053705;28;20044;-74
2021/11/18 09:25:34;;;;;;;42.92;28.60;;;;;;;7.21;61.69;95542.97;5069552;28;20086;-74
2021/11/18 09:28:00;;;;;;;47.08;29.20;;;;;;;7.16;62.06;95540.66;5051768;28;20063;-74
2021/11/18 09:30:34;;;;;;;52.88;31.70;;;;;;;7.07;62.16;95546.34;5073474;28;20032;-74
2021/11/18 09:33:00;;;;;;;47.33;29.48;;;;;;;7.10;62.15;95553.09;5073894;28;20099;-74
2021/11/18 09:35:31;;;;;;;55.42;33.17;;;;;;;7.08;62.07;95549.78;5056792;28;20044;-74
2021/11/18 09:37:57;;;;;;;50.28;30.35;;;;;;;7.09;62.42;95543.69;5078025;28;20071;-74
2021/11/18 09:40:26;;;;;;;49.63;31.15;;;;;;;7.11;62.27;95534.09;5069994;28;20039;-73
2021/11/18 09:43:10;;;;;;;52.25;29.60;;;;;;;7.12;62.57;95539.16;5054059;28;20108;-74
2021/11/18 09:45:40;;;;;;;44.47;26.63;;;;;;;7.13;62.73;95530.50;5071188;28;20036;-72
2021/11/18 09:48:32;;;;;;;44.50;28.77;;;;;;;7.21;63.21;95535.22;5053790;28;20056;-73
2021/11/18 09:51:17;;;;;;;45.38;27.52;;;;;;;7.22;62.75;95523.97;5070151;28;20032;-73
2021/11/18 09:54:17;;;;;;;43.30;26.73;;;;;;;7.31;62.92;95528.59;5070082;28;20036;-73
2021/11/18 09:57:04;;;;;;;46.95;28.33;;;;;;;7.37;62.86;95532.56;5067513;28;20044;-74
2021/11/18 09:59:32;;;;;;;41.22;26.33;;;;;;;7.39;62.87;95533.31;5071105;28;20494;-74
2021/11/18 10:02:09;;;;;;;34.15;22.77;;;;;;;7.42;62.97;95529.72;5071326;28;20114;-73
2021/11/18 10:04:43;;;;;;;32.45;20.88;;;;;;;7.45;63.09;95526.97;5071461;28;20481;-74
2021/11/18 10:07:20;;;;;;;30.88;20.02;;;;;;;7.44;63.21;95520.97;5070000;28;20063;-73
2021/11/18 10:10:07;;;;;;;30.50;18.63;;;;;;;7.52;63.39;95526.50;5070974;28;20016;-73
2021/11/18 10:13:11;;;;;;;31.08;20.45;;;;;;;7.52;63.05;95521.34;5069765;28;20490;-74
2021/11/18 10:15:41;;;;;;;30.90;20.52;;;;;;;7.54;63.36;95519.47;5071024;28;20046;-74
2021/11/18 10:18:23;;;;;;;26.40;18.02;;;;;;;7.57;63.16;95508.13;5053491;28;20557;-74
2021/11/18 10:21:15;;;;;;;33.53;21.02;;;;;;;7.58;63.11;95496.88;5069644;28;20059;-74
2021/11/18 10:23:41;;;;;;;32.95;20.85;;;;;;;7.58;63.23;95491.69;5056222;28;20433;-74
2021/11/18 10:26:10;;;;;;;33.28;21.65;;;;;;;7.68;62.83;95499.72;5036152;28;20025;-73
2021/11/18 10:29:07;;;;;;;31.70;19.95;;;;;;;7.62;62.83;95498.34;5052777;28;20040;-74
2021/11/18 10:31:39;;;;;;;31.80;21.10;;;;;;;7.59;63.31;95499.34;5072000;28;20052;-73
2021/11/18 10:34:12;;;;;;;31.40;21.25;;;;;;;7.61;62.98;95488.94;5071490;28;20036;-73
2021/11/18 10:36:53;;;;;;;36.90;23.17;;;;;;;7.69;62.63;95496.19;5092409;28;20509;-74
2021/11/18 10:39:32;;;;;;;30.98;20.20;;;;;;;7.68;62.73;95481.63;5095220;28;20533;-73
2021/11/18 10:42:00;;;;;;;32.58;20.27;;;;;;;7.70;62.99;95497.88;5074545;28;20068;-73
2021/11/18 10:44:30;;;;;;;31.88;21.13;;;;;;;7.60;62.91;95493.28;5057031;28;20032;-73
2021/11/18 10:47:03;;;;;;;31.40;19.13;;;;;;;7.64;63.32;95487.91;5082218;28;20043;-74
2021/11/18 10:49:42;;;;;;;28.35;18.20;;;;;;;7.76;63.21;95485.41;5077182;28;20047;-73
2021/11/18 10:52:34;;;;;;;36.95;23.05;;;;;;;7.74;63.35;95489.81;5078208;28;20032;-73
2021/11/18 10:55:05;;;;;;;34.22;21.10;;;;;;;7.79;63.38;95482.63;5076828;28;20032;-73
2021/11/18 10:57:32;;;;;;;35.85;22.38;;;;;;;7.81;63.78;95479.94;5093344;28;20525;-73
2021/11/18 11:00:21;;;;;;;33.80;21.45;;;;;;;7.91;63.44;95481.06;5093180;28;20486;-72
2021/11/18 11:02:47;;;;;;;36.25;21.95;;;;;;;7.97;63.21;95472.09;5060093;28;20024;-71
2021/11/18 11:05:31;;;;;;;35.58;21.42;;;;;;;8.03;62.90;95480.28;5076294;28;20172;-72
2021/11/18 11:07:58;;;;;;;37.88;23.85;;;;;;;7.92;62.69;95469.78;5094837;28;20031;-72
2021/11/18 11:10:25;;;;;;;34.45;22.65;;;;;;;8.05;62.33;95475.84;5061907;28;20119;-73
2021/11/18 11:13:08;;;;;;;35.65;22.73;;;;;;;8.12;62.15;95467.69;5039665;28;20408;-72
2021/11/18 11:15:59;;;;;;;30.23;19.60;;;;;;;8.17;62.01;95470.84;5057236;28;20093;-72
2021/11/18 11:18:43;;;;;;;29.05;19.10;;;;;;;8.26;61.88;95472.84;5059221;28;20037;-72
2021/11/18 11:21:29;;;;;;;29.63;19.65;;;;;;;8.27;61.26;95471.91;5073898;28;20037;-72
2021/11/18 11:23:57;;;;;;;33.80;21.35;;;;;;;8.32;60.86;95463.84;5073591;28;20174;-72
2021/11/18 11:26:31;;;;;;;27.77;19.17;;;;;;;8.27;60.83;95464.13;5073787;28;20154;-72
2021/11/18 11:29:29;;;;;;;27.95;18.25;;;;;;;8.34;60.00;95464.59;5073795;28;20031;-73